Time;durP1;ratioP1;P1;durP2;ratioP2;P2;SDS_P1;SDS_P2;PMS_P1;PMS_P2;Temp;Humidity;BMP_temperature;BMP_pressure;BME280_temperature;BME280_humidity;BME280_pressure;Samples;Min_cycle;Max_cycle;Signal;HPM_P1;HPM_P2
2022/07/04 00:01:40;;;;;;;;;;;;;;;19.96;67.69;99659.44;4939685;29;20384;-70
2022/07/04 00:04:09;;;;;;;;;;;;;;;20.01;67.35;99654.13;4939596;29;19929;-70
2022/07/04 00:06:38;;;;;;;;;;;;;;;20.01;67.51;99654.13;4939298;29;19977;-70
2022/07/04 00:09:08;;;;;;;;;;;;;;;19.95;67.57;99655.19;4939267;29;19927;-70
2022/07/04 00:11:36;;;;;;;;;;;;;;;19.95;67.70;99655.19;4939847;29;19933;-70
2022/07/04 00:14:05;;;;;;;;;;;;;;;19.89;67.66;99655.41;4938999;29;19969;-70
2022/07/04 00:16:34;;;;;;;;;;;;;;;19.84;67.67;99654.75;4939107;29;19929;-70
2022/07/04 00:19:03;;;;;;;;;;;;;;;19.82;67.66;99660.91;4939092;29;19923;-70
2022/07/04 00:21:31;;;;;;;;;;;;;;;19.83;67.71;99653.06;4939575;29;20373;-70
2022/07/04 00:24:01;;;;;;;;;;;;;;;19.85;67.68;99655.59;4938888;29;19923;-70
2022/07/04 00:26:31;;;;;;;;;;;;;;;19.85;67.64;99656.44;4939289;29;20028;-70
2022/07/04 00:28:59;;;;;;;;;;;;;;;19.82;67.53;99656.56;4938924;29;19966;-71
2022/07/04 00:31:28;;;;;;;;;;;;;;;19.74;67.36;99661.22;4938849;29;20399;-70
2022/07/04 00:33:57;;;;;;;;;;;;;;;19.78;67.46;99657.59;4938729;29;19923;-71
2022/07/04 00:36:25;;;;;;;;;;;;;;;19.76;67.44;99659.41;4938723;29;19930;-70
2022/07/04 00:38:53;;;;;;;;;;;;;;;19.74;67.30;99655.19;4938645;29;19996;-71
2022/07/04 00:41:22;;;;;;;;;;;;;;;19.80;67.19;99655.78;4938917;29;19924;-71
2022/07/04 00:44:02;;;;;;;;;;;;;;;19.85;67.29;99656.44;4938890;29;19939;-71
2022/07/04 00:46:42;;;;;;;;;;;;;;;19.78;67.34;99657.59;4938912;29;19923;-71
2022/07/04 00:49:11;;;;;;;;;;;;;;;19.77;67.24;99655.06;4938820;29;19929;-71
2022/07/04 00:51:40;;;;;;;;;;;;;;;19.80;67.25;99658.38;4938011;29;19962;-71
2022/07/04 00:54:10;;;;;;;;;;;;;;;19.89;66.93;99658.00;4938879;29;19922;-71
2022/07/04 00:56:39;;;;;;;;;;;;;;;19.98;66.82;99660.25;4938379;29;19974;-71
2022/07/04 00:59:08;;;;;;;;;;;;;;;20.00;66.40;99658.44;4921373;29;20337;-71
2022/07/04 01:01:37;;;;;;;;;;;;;;;20.01;66.50;99654.94;4938284;29;19990;-71
2022/07/04 01:04:07;;;;;;;;;;;;;;;20.02;65.89;99656.63;4939115;29;19954;-71
2022/07/04 01:06:36;;;;;;;;;;;;;;;20.05;66.08;99651.34;4938253;29;19962;-71
2022/07/04 01:09:05;;;;;;;;;;;;;;;20.03;65.84;99654.91;4938100;29;19929;-71
2022/07/04 01:11:34;;;;;;;;;;;;;;;19.93;66.03;99657.00;4938101;29;19930;-70
2022/07/04 01:14:02;;;;;;;;;;;;;;;19.88;66.09;99653.75;4938311;29;19923;-71
2022/07/04 01:16:31;;;;;;;;;;;;;;;19.86;65.87;99652.13;4937881;29;19922;-71
2022/07/04 01:19:00;;;;;;;;;;;;;;;19.84;66.01;99661.69;4937887;29;19928;-70
2022/07/04 01:21:31;;;;;;;;;;;;;;;19.76;66.30;99658.53;4938252;29;19926;-71
2022/07/04 01:24:00;;;;;;;;;;;;;;;19.75;66.13;99657.69;4937951;29;19950;-71
2022/07/04 01:26:30;;;;;;;;;;;;;;;19.73;66.40;99656.91;4938001;29;19926;-70
2022/07/04 01:28:58;;;;;;;;;;;;;;;19.71;66.19;99665.66;4938083;29;20021;-70
2022/07/04 01:31:27;;;;;;;;;;;;;;;19.63;66.20;99665.09;4937727;29;19922;-71
2022/07/04 01:33:56;;;;;;;;;;;;;;;19.56;66.52;99661.88;4937732;29;19923;-70
2022/07/04 01:36:24;;;;;;;;;;;;;;;19.53;66.68;99651.63;4937835;29;19929;-71
2022/07/04 01:38:56;;;;;;;;;;;;;;;19.53;66.54;99658.59;4937515;29;19922;-71
2022/07/04 01:41:24;;;;;;;;;;;;;;;19.50;66.66;99663.88;4938151;29;19926;-71
2022/07/04 01:43:53;;;;;;;;;;;;;;;19.50;66.63;99667.31;4938060;29;20021;-71
2022/07/04 01:46:21;;;;;;;;;;;;;;;19.49;66.47;99669.94;4937884;29;20059;-71
2022/07/04 01:48:50;;;;;;;;;;;;;;;19.52;66.29;99675.84;4937457;29;19970;-71
2022/07/04 01:51:19;;;;;;;;;;;;;;;19.52;65.98;99665.50;4937371;29;20017;-71
2022/07/04 01:53:47;;;;;;;;;;;;;;;19.50;66.02;99663.88;4937418;29;19922;-71
2022/07/04 01:56:17;;;;;;;;;;;;;;;19.41;66.20;99659.88;4937583;29;19922;-70
2022/07/04 01:58:46;;;;;;;;;;;;;;;19.23;66.82;99657.91;4936961;29;20018;-70
2022/07/04 02:03:53;;;;;;;;;;;;;;;19.06;67.61;99665.44;4936773;29;20395;-71
2022/07/04 02:06:21;;;;;;;;;;;;;;;19.01;67.81;99659.56;4937439;29;19934;-70
2022/07/04 02:13:00;;;;;;;;;;;;;;;19.04;67.87;99651.72;4937454;29;19934;-70
2022/07/04 02:14:18;;;;;;;;;;;;;;;18.98;68.04;99663.13;4937076;29;19927;-71
2022/07/04 02:16:48;;;;;;;;;;;;;;;18.92;68.19;99644.38;4937002;29;19957;-71
2022/07/04 02:19:17;;;;;;;;;;;;;;;18.83;68.46;99647.31;4938308;29;19923;-71
2022/07/04 02:21:45;;;;;;;;;;;;;;;18.78;68.58;99654.38;4937261;29;20324;-71
2022/07/04 02:24:14;;;;;;;;;;;;;;;18.83;68.76;99658.50;4937262;29;19922;-71
2022/07/04 02:26:44;;;;;;;;;;;;;;;18.89;68.53;99665.19;4937131;29;20396;-71
2022/07/04 02:29:13;;;;;;;;;;;;;;;18.89;68.25;99660.84;4936873;29;19923;-71
2022/07/04 02:31:41;;;;;;;;;;;;;;;18.98;68.27;99662.28;4936774;29;19929;-71
2022/07/04 02:34:10;;;;;;;;;;;;;;;19.03;67.99;99650.88;4936786;29;19926;-71
2022/07/04 02:36:38;;;;;;;;;;;;;;;19.01;68.04;99646.66;4937092;29;19966;-71
2022/07/04 02:39:07;;;;;;;;;;;;;;;18.85;68.02;99651.53;4936675;29;19954;-71
2022/07/04 02:41:38;;;;;;;;;;;;;;;18.79;68.33;99656.06;4937022;29;20317;-71
2022/07/04 02:44:09;;;;;;;;;;;;;;;18.84;68.58;99648.97;4937161;29;20021;-71
2022/07/04 02:46:38;;;;;;;;;;;;;;;18.90;68.34;99656.53;4936728;29;19930;-71
2022/07/04 02:49:06;;;;;;;;;;;;;;;18.97;68.02;99658.00;4936992;29;19922;-71
2022/07/04 02:51:35;;;;;;;;;;;;;;;18.91;67.94;99656.47;4936850;29;19923;-71
2022/07/04 02:54:04;;;;;;;;;;;;;;;18.92;68.02;99657.31;4936941;29;20346;-71
2022/07/04 02:56:32;;;;;;;;;;;;;;;18.98;67.65;99657.13;4937142;29;19922;-71
2022/07/04 02:59:01;;;;;;;;;;;;;;;19.03;67.89;99652.59;4936368;29;19922;-71
2022/07/04 03:01:31;;;;;;;;;;;;;;;19.02;67.57;99651.78;4936519;29;19927;-71
2022/07/04 03:04:00;;;;;;;;;;;;;;;19.00;67.46;99652.72;4936865;29;19949;-71
2022/07/04 03:06:28;;;;;;;;;;;;;;;18.96;67.45;99653.72;4936758;29;19987;-71
2022/07/04 03:08:57;;;;;;;;;;;;;;;18.93;67.08;99643.50;4919752;29;20436;-71
2022/07/04 03:11:25;;;;;;;;;;;;;;;18.93;67.05;99652.09;4936939;29;20384;-71
2022/07/04 03:13:55;;;;;;;;;;;;;;;18.93;67.14;99646.91;4938357;29;20013;-71
2022/07/04 03:16:23;;;;;;;;;;;;;;;18.93;66.95;99648.69;4940159;29;19922;-71
2022/07/04 03:18:53;;;;;;;;;;;;;;;18.85;67.16;99650.69;4940281;29;20380;-71
2022/07/04 03:21:22;;;;;;;;;;;;;;;18.86;67.51;99660.13;4923429;29;20021;-71
2022/07/04 03:23:58;;;;;;;;;;;;;;;18.89;67.49;99657.41;4940346;29;19926;-71
2022/07/04 03:26:27;;;;;;;;;;;;;;;18.93;67.34;99664.19;4940376;29;19927;-71
2022/07/04 03:28:56;;;;;;;;;;;;;;;18.99;67.06;99658.78;4939942;29;19929;-71
2022/07/04 03:31:25;;;;;;;;;;;;;;;19.02;66.86;99650.94;4939901;29;20432;-71
2022/07/04 03:33:55;;;;;;;;;;;;;;;19.04;66.67;99652.56;4939863;29;20428;-71
2022/07/04 03:36:23;;;;;;;;;;;;;;;19.09;66.64;99649.81;4939807;29;19923;-71
2022/07/04 03:38:52;;;;;;;;;;;;;;;19.13;66.48;99646.19;4940044;29;19929;-70
2022/07/04 03:41:21;;;;;;;;;;;;;;;19.22;66.14;99651.03;4939620;29;19926;-71
2022/07/04 03:43:49;;;;;;;;;;;;;;;19.25;66.13;99645.75;4922684;29;19923;-71
2022/07/04 03:46:18;;;;;;;;;;;;;;;19.28;66.04;99650.84;4940063;29;19923;-70
2022/07/04 03:48:46;;;;;;;;;;;;;;;19.31;66.08;99650.72;4939907;29;20013;-70
2022/07/04 03:51:17;;;;;;;;;;;;;;;19.38;66.23;99653.06;4939814;29;19923;-70
2022/07/04 03:53:45;;;;;;;;;;;;;;;19.41;66.32;99662.47;4939600;29;19970;-70
2022/07/04 03:56:14;;;;;;;;;;;;;;;19.42;65.92;99660.72;4939779;29;20436;-70
2022/07/04 03:58:43;;;;;;;;;;;;;;;19.49;65.78;99660.44;4939340;29;20001;-70
2022/07/04 04:01:11;;;;;;;;;;;;;;;19.57;65.80;99661.00;4939609;29;19923;-70
2022/07/04 04:06:20;;;;;;;;;;;;;;;19.71;65.60;99671.69;4939378;29;19929;-71
2022/07/04 04:08:48;;;;;;;;;;;;;;;19.70;65.90;99669.97;4939361;29;19970;-71
2022/07/04 04:11:17;;;;;;;;;;;;;;;19.72;65.36;99673.38;4939490;29;19923;-70
2022/07/04 04:13:46;;;;;;;;;;;;;;;19.69;65.40;99665.72;4939443;29;19930;-70
2022/07/04 04:16:14;;;;;;;;;;;;;;;19.75;65.29;99662.88;4939440;29;19957;-70
2022/07/04 04:18:43;;;;;;;;;;;;;;;19.82;64.99;99664.31;4939392;29;20337;-70
2022/07/04 04:21:11;;;;;;;;;;;;;;;19.87;64.83;99672.78;4938896;29;19923;-70
2022/07/04 04:23:41;;;;;;;;;;;;;;;19.92;64.75;99670.00;4939340;29;19931;-70
2022/07/04 04:26:11;;;;;;;;;;;;;;;19.98;64.84;99681.00;4938198;29;19927;-70
2022/07/04 04:28:41;;;;;;;;;;;;;;;20.05;64.39;99668.63;4938941;29;20026;-71
2022/07/04 04:31:09;;;;;;;;;;;;;;;20.11;64.48;99675.31;4938807;29;19930;-70
2022/07/04 04:33:38;;;;;;;;;;;;;;;20.21;63.88;99671.44;4939122;29;19927;-70
2022/07/04 04:36:06;;;;;;;;;;;;;;;20.29;63.80;99675.47;4938768;29;19954;-70
2022/07/04 04:38:35;;;;;;;;;;;;;;;20.42;63.71;99670.63;4938776;29;20009;-70
2022/07/04 04:41:05;;;;;;;;;;;;;;;20.58;63.58;99677.72;4938559;29;20453;-71
2022/07/04 04:43:33;;;;;;;;;;;;;;;20.68;63.02;99673.00;4938722;29;20394;-71
2022/07/04 04:46:02;;;;;;;;;;;;;;;20.77;62.75;99677.78;4938776;29;19922;-71
2022/07/04 04:48:31;;;;;;;;;;;;;;;20.88;62.31;99674.72;4938560;29;19974;-70
2022/07/04 04:50:59;;;;;;;;;;;;;;;20.99;62.08;99678.56;4938798;29;20403;-70
2022/07/04 04:53:36;;;;;;;;;;;;;;;21.14;62.03;99690.88;4938798;29;20369;-70
2022/07/04 04:56:06;;;;;;;;;;;;;;;21.19;61.29;99686.34;4938789;29;19922;-70
2022/07/04 04:58:35;;;;;;;;;;;;;;;21.30;61.09;99694.53;4938287;29;19923;-70
2022/07/04 05:01:03;;;;;;;;;;;;;;;21.40;61.00;99691.50;4938255;29;19929;-71
2022/07/04 05:03:52;;;;;;;;;;;;;;;21.57;60.76;99692.41;4938305;29;19929;-71
2022/07/04 05:06:21;;;;;;;;;;;;;;;21.72;60.52;99690.88;4938231;29;19927;-71
2022/07/04 05:08:49;;;;;;;;;;;;;;;21.83;60.29;99693.84;4921463;29;20336;-68
2022/07/04 05:11:19;;;;;;;;;;;;;;;22.01;59.83;99693.00;4938412;29;20293;-71
2022/07/04 05:13:48;;;;;;;;;;;;;;;22.11;59.42;99694.25;4938372;29;20032;-68
2022/07/04 05:16:16;;;;;;;;;;;;;;;22.24;59.10;99703.19;4938036;29;20357;-68
2022/07/04 05:18:45;;;;;;;;;;;;;;;22.41;58.63;99702.38;4938026;29;20325;-67
2022/07/04 05:21:14;;;;;;;;;;;;;;;22.55;58.08;99699.94;4938213;29;20032;-66
2022/07/04 05:23:42;;;;;;;;;;;;;;;22.62;57.34;99706.53;4937856;29;19929;-69
2022/07/04 05:26:11;;;;;;;;;;;;;;;22.68;57.05;99701.03;4938047;29;19956;-69
2022/07/04 05:28:41;;;;;;;;;;;;;;;22.80;57.15;99715.19;4938153;29;19922;-68
2022/07/04 05:31:09;;;;;;;;;;;;;;;22.96;56.89;99713.50;4937832;29;19958;-68
2022/07/04 05:33:38;;;;;;;;;;;;;;;23.12;56.74;99714.41;4937889;29;20341;-68
2022/07/04 05:36:07;;;;;;;;;;;;;;;23.32;56.47;99719.44;4937928;29;20318;-67
2022/07/04 05:38:35;;;;;;;;;;;;;;;23.44;55.74;99718.84;4937904;29;20350;-67
2022/07/04 05:41:05;;;;;;;;;;;;;;;23.52;54.98;99721.84;4937737;29;19930;-68
2022/07/04 05:43:33;;;;;;;;;;;;;;;23.66;54.84;99714.13;4937725;29;19923;-66
2022/07/04 05:46:04;;;;;;;;;;;;;;;23.73;54.40;99705.06;4937270;29;19922;-65
2022/07/04 05:48:33;;;;;;;;;;;;;;;23.84;54.34;99702.72;4937814;29;19954;-66
2022/07/04 05:51:01;;;;;;;;;;;;;;;23.95;54.09;99692.53;4937644;29;19927;-66
2022/07/04 05:53:30;;;;;;;;;;;;;;;24.09;53.82;99711.84;4937445;29;19923;-67
2022/07/04 05:55:59;;;;;;;;;;;;;;;24.11;53.47;99710.00;4937660;29;19923;-69
2022/07/04 05:58:27;;;;;;;;;;;;;;;24.12;53.23;99709.06;4937255;29;19923;-69
2022/07/04 06:00:56;;;;;;;;;;;;;;;24.25;53.41;99703.09;4937355;29;19962;-68
2022/07/04 06:03:26;;;;;;;;;;;;;;;24.35;53.44;99703.41;4937407;29;19930;-69
2022/07/04 06:05:55;;;;;;;;;;;;;;;24.43;52.93;99711.63;4937852;29;19922;-68
2022/07/04 06:08:23;;;;;;;;;;;;;;;24.53;52.91;99713.63;4937008;29;19961;-66
2022/07/04 06:10:52;;;;;;;;;;;;;;;24.64;52.86;99715.63;4937415;29;19966;-69
2022/07/04 06:13:21;;;;;;;;;;;;;;;24.74;52.36;99710.72;4936923;29;19923;-68
2022/07/04 06:15:49;;;;;;;;;;;;;;;24.87;52.28;99722.16;4937016;29;19923;-68
2022/07/04 06:18:18;;;;;;;;;;;;;;;24.96;52.00;99721.59;4936929;29;19955;-68
2022/07/04 06:20:48;;;;;;;;;;;;;;;25.07;51.28;99720.06;4936828;29;19922;-69
2022/07/04 06:23:18;;;;;;;;;;;;;;;25.18;51.14;99707.19;4936940;29;19926;-68
2022/07/04 06:25:46;;;;;;;;;;;;;;;25.30;51.18;99711.69;4919915;29;20381;-69
2022/07/04 06:28:15;;;;;;;;;;;;;;;25.41;50.72;99707.59;4937064;29;19922;-67
2022/07/04 06:31:04;;;;;;;;;;;;;;;25.49;50.28;99705.34;4936813;29;20390;-68
2022/07/04 06:33:32;;;;;;;;;;;;;;;25.65;49.88;99700.88;4937330;29;20013;-68
2022/07/04 06:36:21;;;;;;;;;;;;;;;25.84;49.79;99706.66;4933248;29;20387;-69
2022/07/04 06:38:50;;;;;;;;;;;;;;;25.94;49.47;99697.25;4937046;29;19970;-69
2022/07/04 06:41:18;;;;;;;;;;;;;;;26.03;49.55;99701.09;4937002;29;20391;-68
2022/07/04 06:43:47;;;;;;;;;;;;;;;26.13;49.32;99704.84;4935363;29;19923;-68
2022/07/04 06:46:16;;;;;;;;;;;;;;;26.12;48.89;99701.38;4936951;29;20329;-68
2022/07/04 06:48:45;;;;;;;;;;;;;;;26.14;48.24;99699.47;4939377;29;20013;-68
2022/07/04 06:51:14;;;;;;;;;;;;;;;26.33;48.34;99705.22;4943256;29;19926;-67
2022/07/04 06:53:45;;;;;;;;;;;;;;;26.48;47.94;99704.22;4942986;29;19927;-68
2022/07/04 06:56:14;;;;;;;;;;;;;;;26.59;47.15;99699.09;4942906;29;19930;-68
2022/07/04 06:58:42;;;;;;;;;;;;;;;26.69;47.39;99695.88;4942770;29;19929;-69
2022/07/04 07:01:11;;;;;;;;;;;;;;;26.74;47.12;99705.13;4931550;29;19930;-68
2022/07/04 07:03:40;;;;;;;;;;;;;;;26.84;47.03;99703.59;4923830;29;19923;-67
2022/07/04 07:06:09;;;;;;;;;;;;;;;26.95;47.07;99708.94;4924357;29;20356;-68
2022/07/04 07:08:38;;;;;;;;;;;;;;;27.05;46.34;99709.16;4933334;29;19930;-68
2022/07/04 07:11:14;;;;;;;;;;;;;;;27.01;46.46;99705.06;4942732;29;19923;-68
2022/07/04 07:13:43;;;;;;;;;;;;;;;27.09;47.63;99716.69;4942882;29;20513;-67
2022/07/04 07:16:12;;;;;;;;;;;;;;;27.22;46.99;99706.22;4942900;29;19927;-68
2022/07/04 07:18:41;;;;;;;;;;;;;;;27.33;46.69;99708.94;4942747;29;19929;-68
2022/07/04 07:21:09;;;;;;;;;;;;;;;27.54;46.41;99702.25;4942890;29;19930;-67
2022/07/04 07:23:39;;;;;;;;;;;;;;;27.63;45.93;99701.59;4942712;29;19928;-68
2022/07/04 07:26:09;;;;;;;;;;;;;;;27.67;45.79;99703.06;4942604;29;19929;-69
2022/07/04 07:28:38;;;;;;;;;;;;;;;27.83;45.67;99693.16;4943541;29;20369;-68
2022/07/04 07:31:07;;;;;;;;;;;;;;;27.93;45.75;99681.06;4942811;29;19957;-69
2022/07/04 07:33:36;;;;;;;;;;;;;;;28.17;45.81;99690.78;4942646;29;19923;-68
2022/07/04 07:36:05;;;;;;;;;;;;;;;28.22;44.74;99694.72;4942927;29;19961;-68
2022/07/04 07:38:33;;;;;;;;;;;;;;;28.23;44.32;99690.31;4942479;29;19934;-68
2022/07/04 07:41:02;;;;;;;;;;;;;;;28.25;44.56;99693.66;4942523;29;19922;-68
2022/07/04 07:43:32;;;;;;;;;;;;;;;28.02;44.01;99686.63;4942783;29;20428;-68
2022/07/04 07:46:00;;;;;;;;;;;;;;;27.92;44.69;99684.63;4931446;29;19923;-68
2022/07/04 07:48:29;;;;;;;;;;;;;;;27.91;44.86;99695.22;4942489;28;19923;-68
2022/07/04 07:50:59;;;;;;;;;;;;;;;27.96;44.19;99682.63;4942197;29;19929;-68
2022/07/04 07:53:28;;;;;;;;;;;;;;;28.13;44.02;99686.69;4936426;29;19954;-68
2022/07/04 07:55:56;;;;;;;;;;;;;;;28.34;44.38;99682.47;4928014;29;20013;-68
2022/07/04 07:58:25;;;;;;;;;;;;;;;28.59;43.90;99684.97;4923186;29;19930;-67
2022/07/04 08:00:55;;;;;;;;;;;;;;;28.88;43.45;99682.81;4927295;29;19931;-68
2022/07/04 08:06:13;;;;;;;;;;;;;;;29.26;42.21;99687.78;4917843;29;20436;-67
2022/07/04 08:08:42;;;;;;;;;;;;;;;29.41;42.20;99686.59;4939023;29;19922;-67
2022/07/04 08:11:12;;;;;;;;;;;;;;;29.54;41.72;99692.56;4936665;29;20373;-67
2022/07/04 08:13:41;;;;;;;;;;;;;;;29.50;41.26;99691.97;4933118;29;19923;-68
2022/07/04 08:16:11;;;;;;;;;;;;;;;29.42;41.08;99688.28;4939023;29;20396;-67
2022/07/04 08:18:40;;;;;;;;;;;;;;;29.19;41.26;99688.28;4939372;29;20404;-68
2022/07/04 08:21:08;;;;;;;;;;;;;;;29.18;41.95;99686.59;4939277;29;20417;-66
2022/07/04 08:23:40;;;;;;;;;;;;;;;29.19;42.13;99683.00;4939061;29;19922;-68
2022/07/04 08:26:29;;;;;;;;;;;;;;;29.26;42.02;99677.25;4938982;29;19950;-67
2022/07/04 08:28:59;;;;;;;;;;;;;;;29.30;41.89;99673.47;4932788;29;20033;-68
2022/07/04 08:31:29;;;;;;;;;;;;;;;29.44;41.33;99670.59;4929923;29;19922;-67
2022/07/04 08:34:18;;;;;;;;;;;;;;;29.63;40.98;99663.75;4920121;29;19971;-68
2022/07/04 08:36:47;;;;;;;;;;;;;;;29.94;40.74;99664.78;4920139;29;19939;-68
2022/07/04 08:39:16;;;;;;;;;;;;;;;30.18;40.35;99672.50;4920008;29;20365;-67
2022/07/04 08:41:45;;;;;;;;;;;;;;;30.33;39.89;99661.56;4923105;29;19962;-68
2022/07/04 08:44:13;;;;;;;;;;;;;;;30.45;39.83;99665.81;4938649;29;19923;-66
2022/07/04 08:46:43;;;;;;;;;;;;;;;30.66;39.19;99663.22;4938857;29;20021;-68
2022/07/04 08:49:18;;;;;;;;;;;;;;;30.88;38.91;99659.59;4938901;29;19923;-70
2022/07/04 08:51:52;;;;;;;;;;;;;;;31.09;38.24;99661.28;4928569;29;19946;-70
2022/07/04 08:59:44;;;;;;;;;;;;;;;31.55;38.19;99655.53;4930688;29;20017;-71
2022/07/04 09:02:17;;;;;;;;;;;;;;;31.61;38.07;99644.41;4937112;29;19923;-71
2022/07/04 09:04:45;;;;;;;;;;;;;;;31.84;37.39;99645.03;4923607;29;20334;-71
2022/07/04 09:07:14;;;;;;;;;;;;;;;32.02;36.91;99645.22;4919455;29;19930;-71
2022/07/04 09:09:43;;;;;;;;;;;;;;;31.98;36.14;99643.81;4919649;29;20378;-71
2022/07/04 09:12:18;;;;;;;;;;;;;;;31.76;35.75;99645.72;4922363;29;19945;-71
2022/07/04 09:14:47;;;;;;;;;;;;;;;31.68;36.51;99645.53;4929446;29;19930;-70
2022/07/04 09:17:17;;;;;;;;;;;;;;;31.73;37.63;99640.69;4928230;29;19923;-70
2022/07/04 09:19:45;;;;;;;;;;;;;;;31.76;36.90;99639.59;4937947;29;19922;-71
2022/07/04 09:22:14;;;;;;;;;;;;;;;32.03;36.97;99641.59;4938100;29;19949;-71
2022/07/04 09:24:46;;;;;;;;;;;;;;;32.13;37.15;99637.97;4929566;29;19923;-71
2022/07/04 09:27:30;;;;;;;;;;;;;;;32.38;35.38;99631.31;4919160;29;19927;-71
2022/07/04 09:29:58;;;;;;;;;;;;;;;32.36;34.86;99627.97;4919150;29;20010;-71
2022/07/04 09:32:38;;;;;;;;;;;;;;;32.31;34.85;99630.19;4919019;29;19923;-69
2022/07/04 09:35:16;;;;;;;;;;;;;;;32.41;34.87;99634.53;4919116;29;20341;-71
2022/07/04 09:37:46;;;;;;;;;;;;;;;32.34;34.33;99619.34;4918744;29;19927;-71
2022/07/04 09:40:25;;;;;;;;;;;;;;;32.51;34.41;99620.47;4918655;29;19931;-71
2022/07/04 09:42:54;;;;;;;;;;;;;;;32.60;34.33;99625.75;4919158;29;19923;-70
2022/07/04 09:45:24;;;;;;;;;;;;;;;32.57;33.64;99615.44;4918853;29;19923;-70
2022/07/04 09:47:55;;;;;;;;;;;;;;;32.64;33.35;99621.00;4918510;29;19927;-71
2022/07/04 09:50:26;;;;;;;;;;;;;;;32.57;32.47;99623.38;4936003;29;20369;-71
2022/07/04 09:52:55;;;;;;;;;;;;;;;32.48;32.28;99616.28;4924895;29;19927;-71
2022/07/04 09:55:25;;;;;;;;;;;;;;;32.44;32.25;99610.41;4926634;29;19923;-71
2022/07/04 09:57:55;;;;;;;;;;;;;;;32.61;32.59;99614.19;4918239;29;20368;-71
2022/07/04 10:00:26;;;;;;;;;;;;;;;32.79;32.37;99611.66;4918221;29;19969;-71
2022/07/04 10:02:55;;;;;;;;;;;;;;;32.82;31.48;99609.56;4918534;29;20381;-71
2022/07/04 10:05:27;;;;;;;;;;;;;;;33.00;31.41;99613.09;4918461;29;19923;-71
2022/07/04 10:07:56;;;;;;;;;;;;;;;33.15;30.65;99604.72;4920510;29;20381;-71
2022/07/04 10:10:29;;;;;;;;;;;;;;;33.26;31.22;99599.25;4917857;29;20026;-71
2022/07/04 10:12:58;;;;;;;;;;;;;;;33.19;30.65;99600.78;4930423;29;20432;-71
2022/07/04 10:15:26;;;;;;;;;;;;;;;32.90;30.98;99599.06;4934749;29;20011;-72
2022/07/04 10:17:55;;;;;;;;;;;;;;;32.48;31.79;99605.69;4927266;29;19962;-71
2022/07/04 10:20:24;;;;;;;;;;;;;;;32.45;32.86;99595.41;4918120;29;19923;-71
2022/07/04 10:22:54;;;;;;;;;;;;;;;32.58;32.78;99595.13;4917652;29;20349;-71
2022/07/04 10:25:22;;;;;;;;;;;;;;;32.58;31.76;99595.97;4921767;29;19923;-72
2022/07/04 10:27:51;;;;;;;;;;;;;;;32.69;31.67;99592.31;4928341;29;19957;-71
2022/07/04 10:30:23;;;;;;;;;;;;;;;32.73;31.64;99599.00;4936881;29;19962;-71
2022/07/04 10:32:52;;;;;;;;;;;;;;;32.75;31.57;99589.97;4934796;29;19926;-71
2022/07/04 10:35:41;;;;;;;;;;;;;;;32.71;31.52;99599.13;4936753;29;19985;-71
2022/07/04 10:38:11;;;;;;;;;;;;;;;32.55;31.63;99598.91;4936812;29;19922;-70
2022/07/04 10:40:41;;;;;;;;;;;;;;;32.54;32.29;99594.56;4936931;29;20340;-70
2022/07/04 10:43:24;;;;;;;;;;;;;;;32.42;31.48;99599.16;4936908;29;19930;-70
2022/07/04 10:45:52;;;;;;;;;;;;;;;32.58;31.46;99590.69;4936416;29;20385;-72
2022/07/04 10:48:21;;;;;;;;;;;;;;;32.79;31.28;99585.19;4936613;29;19926;-71
2022/07/04 10:50:59;;;;;;;;;;;;;;;33.00;30.44;99594.59;4928873;29;20273;-71
2022/07/04 10:53:29;;;;;;;;;;;;;;;33.07;29.55;99587.75;4917532;29;19970;-71
2022/07/04 10:56:04;;;;;;;;;;;;;;;32.97;29.42;99592.22;4918289;29;20011;-72
2022/07/04 10:58:39;;;;;;;;;;;;;;;32.91;29.75;99582.22;4936821;29;20357;-71
2022/07/04 11:01:11;;;;;;;;;;;;;;;32.97;30.75;99579.00;4936809;29;20262;-70
2022/07/04 11:03:45;;;;;;;;;;;;;;;32.98;30.30;99572.72;4936582;29;19957;-71
2022/07/04 11:06:28;;;;;;;;;;;;;;;33.11;30.33;99571.59;4936740;29;20441;-70
2022/07/04 11:09:09;;;;;;;;;;;;;;;33.14;30.19;99568.66;4936217;29;20041;-70
2022/07/04 11:11:48;;;;;;;;;;;;;;;33.34;30.11;99563.13;4936794;29;19923;-70
2022/07/04 11:14:27;;;;;;;;;;;;;;;33.53;30.55;99567.44;4936451;29;19923;-70
2022/07/04 11:16:58;;;;;;;;;;;;;;;33.71;30.01;99563.03;4933195;29;19931;-71
2022/07/04 11:19:27;;;;;;;;;;;;;;;33.50;29.56;99552.69;4917306;29;20293;-70
2022/07/04 11:21:56;;;;;;;;;;;;;;;33.37;29.57;99554.03;4917688;29;20432;-71
2022/07/04 11:24:25;;;;;;;;;;;;;;;33.44;29.76;99552.47;4917258;29;19930;-70
2022/07/04 11:26:53;;;;;;;;;;;;;;;33.59;29.85;99535.94;4917517;29;20023;-70
2022/07/04 11:29:22;;;;;;;;;;;;;;;33.64;29.78;99538.97;4917325;29;19927;-70
2022/07/04 11:31:51;;;;;;;;;;;;;;;33.67;30.35;99538.66;4917483;29;19923;-71
2022/07/04 11:34:21;;;;;;;;;;;;;;;33.49;30.31;99539.63;4922567;29;19945;-71
2022/07/04 11:36:51;;;;;;;;;;;;;;;33.40;30.86;99535.22;4935814;29;20364;-71
2022/07/04 11:39:20;;;;;;;;;;;;;;;33.35;31.14;99537.47;4920878;29;19931;-70
2022/07/04 11:47:08;;;;;;;;;;;;;;;33.37;30.62;99532.88;4920785;29;20385;-70
2022/07/04 11:49:43;;;;;;;;;;;;;;;33.33;31.59;99529.66;4920638;29;19926;-70
2022/07/04 11:52:12;;;;;;;;;;;;;;;33.23;32.62;99533.38;4920657;29;19927;-70
2022/07/04 11:54:41;;;;;;;;;;;;;;;33.18;32.06;99539.13;4931577;29;19926;-71
2022/07/04 11:57:22;;;;;;;;;;;;;;;33.05;31.41;99544.75;4920283;29;20022;-70
2022/07/04 11:59:58;;;;;;;;;;;;;;;32.96;31.30;99536.81;4920767;29;20021;-70
2022/07/04 12:02:27;;;;;;;;;;;;;;;32.96;32.65;99547.41;4920475;29;19927;-70
2022/07/04 12:04:58;;;;;;;;;;;;;;;32.97;33.14;99544.59;4920254;29;19934;-70
2022/07/04 12:07:28;;;;;;;;;;;;;;;32.96;32.79;99532.38;4920707;29;19966;-70
2022/07/04 12:09:57;;;;;;;;;;;;;;;32.89;31.75;99533.94;4920284;29;20021;-71
2022/07/04 12:12:25;;;;;;;;;;;;;;;32.97;31.97;99539.31;4920637;29;19974;-71
2022/07/04 12:14:58;;;;;;;;;;;;;;;32.99;30.89;99532.06;4925985;29;19955;-70
2022/07/04 12:17:30;;;;;;;;;;;;;;;33.18;31.86;99530.34;4939105;29;20348;-70
2022/07/04 12:20:02;;;;;;;;;;;;;;;33.37;31.31;99532.88;4935634;29;19970;-71
2022/07/04 12:22:38;;;;;;;;;;;;;;;33.39;30.45;99533.53;4938919;29;19952;-71
2022/07/04 12:25:07;;;;;;;;;;;;;;;33.52;30.64;99537.47;4938550;29;19927;-71
2022/07/04 12:27:36;;;;;;;;;;;;;;;33.86;32.17;99542.97;4938752;29;19927;-70
2022/07/04 12:30:05;;;;;;;;;;;;;;;34.04;31.22;99535.88;4938912;29;20369;-70
2022/07/04 12:32:44;;;;;;;;;;;;;;;34.27;30.46;99531.75;4938723;29;19923;-70
2022/07/04 12:35:28;;;;;;;;;;;;;;;34.27;29.65;99528.25;4938798;29;20017;-70
2022/07/04 12:38:05;;;;;;;;;;;;;;;34.20;29.65;99525.41;4938854;29;19986;-70
2022/07/04 12:40:34;;;;;;;;;;;;;;;34.14;29.75;99520.72;4938767;29;19922;-70
2022/07/04 12:43:23;;;;;;;;;;;;;;;34.08;29.59;99516.03;4939058;29;19950;-70
2022/07/04 12:45:53;;;;;;;;;;;;;;;34.23;29.30;99518.94;4938133;29;19930;-70
2022/07/04 12:48:27;;;;;;;;;;;;;;;34.39;29.34;99525.19;4937449;29;20471;-71
2022/07/04 12:50:56;;;;;;;;;;;;;;;34.29;29.14;99513.84;4938562;29;19923;-69
2022/07/04 12:53:26;;;;;;;;;;;;;;;34.33;29.46;99515.22;4936929;29;19958;-70
2022/07/04 12:55:55;;;;;;;;;;;;;;;34.36;29.35;99519.38;4938597;29;19945;-70
2022/07/04 12:58:26;;;;;;;;;;;;;;;34.52;29.92;99514.16;4938216;29;20350;-70
2022/07/04 13:00:55;;;;;;;;;;;;;;;34.39;29.52;99521.69;4938549;29;19922;-70
2022/07/04 13:03:24;;;;;;;;;;;;;;;34.33;30.21;99531.13;4938202;29;19986;-70
2022/07/04 13:05:53;;;;;;;;;;;;;;;34.16;30.14;99525.88;4936958;29;20018;-70
2022/07/04 13:08:21;;;;;;;;;;;;;;;33.97;31.10;99520.72;4935964;29;19974;-70
2022/07/04 13:12:24;;;;;;;;;;;;;;;33.78;31.66;99524.38;4938030;29;19922;-71
2022/07/04 13:13:41;;;;;;;;;;;;;;;33.65;31.54;99523.91;4938513;29;19945;-70
2022/07/04 13:16:09;;;;;;;;;;;;;;;33.60;31.22;99527.00;4938302;29;19923;-70
2022/07/04 13:18:38;;;;;;;;;;;;;;;33.54;30.78;99522.34;4938019;29;19933;-69
2022/07/04 13:21:06;;;;;;;;;;;;;;;33.42;31.02;99518.22;4938004;29;19922;-69
2022/07/04 13:23:35;;;;;;;;;;;;;;;33.34;30.71;99522.56;4935863;29;19962;-69
2022/07/04 13:26:05;;;;;;;;;;;;;;;33.25;32.05;99528.75;4929347;29;19930;-69